Time;durP1;ratioP1;P1;durP2;ratioP2;P2;SDS_P1;SDS_P2;PMS_P1;PMS_P2;Temp;Humidity;BMP_temperature;BMP_pressure;BME280_temperature;BME280_humidity;BME280_pressure;Samples;Min_cycle;Max_cycle;Signal;HPM_P1;HPM_P2
2022/03/16 00:00:09;;;;;;;12.95;6.65;;;-4.90;94.30;-5.80;100394.00;;;;4894295;28;89265;-56
2022/03/16 00:02:41;;;;;;;14.18;6.72;;;-4.90;94.00;-5.80;100396.00;;;;4889990;28;88496;-56
2022/03/16 00:05:08;;;;;;;10.80;5.72;;;-5.00;94.00;-5.90;100411.00;;;;4897692;28;86952;-57
2022/03/16 00:07:34;;;;;;;9.45;5.75;;;-5.00;94.10;-5.90;100397.00;;;;4902492;28;87051;-58
2022/03/16 00:10:00;;;;;;;9.52;5.82;;;-5.00;94.10;-6.00;100396.00;;;;4897332;28;87656;-57
2022/03/16 00:12:26;;;;;;;12.55;6.75;;;-5.10;94.20;-6.00;100402.00;;;;4898726;28;87193;-55
2022/03/16 00:14:53;;;;;;;9.93;6.25;;;-5.10;94.40;-6.00;100400.00;;;;4895820;28;87993;-57
2022/03/16 00:17:19;;;;;;;14.27;6.97;;;-5.20;94.40;-6.00;100400.00;;;;4895183;28;87538;-58
2022/03/16 00:19:46;;;;;;;10.25;6.93;;;-5.20;94.50;-6.00;100396.00;;;;4897684;28;88577;-58
2022/03/16 00:22:12;;;;;;;11.93;6.60;;;-5.20;94.50;-6.00;100402.00;;;;4895322;28;88158;-57
2022/03/16 00:24:38;;;;;;;13.43;6.82;;;-5.20;94.50;-6.10;100408.00;;;;4896663;28;87009;-56
2022/03/16 00:27:05;;;;;;;11.82;6.50;;;-5.20;94.60;-6.10;100399.00;;;;4895086;28;87081;-55
2022/03/16 00:29:31;;;;;;;10.82;6.65;;;-5.20;94.60;-6.10;100409.00;;;;4897878;28;87653;-55
2022/03/16 00:31:59;;;;;;;10.95;6.70;;;-5.20;94.60;-6.20;100404.00;;;;4884043;28;87515;-56
2022/03/16 00:34:25;;;;;;;9.93;6.78;;;-5.30;94.70;-6.20;100396.00;;;;4897460;28;87115;-58
2022/03/16 00:36:51;;;;;;;13.98;8.30;;;-5.30;94.80;-6.20;100394.00;;;;4888015;28;86293;-57
2022/03/16 00:39:18;;;;;;;11.15;7.38;;;-5.30;95.00;-6.20;100409.00;;;;4888966;28;88701;-55
2022/03/16 00:41:44;;;;;;;11.80;7.50;;;-5.30;94.90;-6.30;100403.00;;;;4892785;28;88237;-58
2022/03/16 00:44:13;;;;;;;13.35;7.70;;;-5.40;95.00;-6.30;100407.00;;;;4880716;28;87897;-54
2022/03/16 00:46:41;;;;;;;11.73;7.05;;;-5.40;95.10;-6.40;100412.00;;;;4897224;28;88030;-57
2022/03/16 00:49:07;;;;;;;12.80;6.93;;;-5.40;95.30;-6.40;100418.00;;;;4879307;28;87615;-55
2022/03/16 00:51:52;;;;;;;16.40;7.53;;;-5.50;95.30;-6.40;100414.00;;;;4881633;28;88556;-56
2022/03/16 00:54:42;;;;;;;16.13;7.50;;;-5.50;95.30;-6.50;100417.00;;;;4885532;28;87025;-54
2022/03/16 00:57:11;;;;;;;12.27;6.88;;;-5.60;95.30;-6.50;100418.00;;;;4893916;28;87355;-55
2022/03/16 00:59:39;;;;;;;10.60;6.80;;;-5.50;95.50;-6.50;100412.00;;;;4861201;28;89846;-55
2022/03/16 01:02:08;;;;;;;15.00;6.93;;;-5.60;95.40;-6.50;100409.00;;;;4896569;28;87964;-53
2022/03/16 01:04:37;;;;;;;12.65;6.88;;;-5.60;95.40;-6.50;100410.00;;;;4879125;28;87391;-57
2022/03/16 01:07:05;;;;;;;16.20;7.25;;;-5.60;95.40;-6.50;100408.00;;;;4893804;28;88028;-51
2022/03/16 01:09:31;;;;;;;16.98;7.40;;;-5.60;95.50;-6.50;100410.00;;;;4878830;28;88607;-52
2022/03/16 01:11:58;;;;;;;12.27;7.18;;;-5.60;95.40;-6.40;100411.00;;;;4878787;28;89721;-54
2022/03/16 01:14:30;;;;;;;15.43;7.20;;;-5.60;95.40;-6.40;100425.00;;;;4877795;28;87047;-51
2022/03/16 01:16:59;;;;;;;16.73;7.88;;;-5.50;95.40;-6.40;100408.00;;;;4879120;28;87006;-55
2022/03/16 01:19:25;;;;;;;10.85;7.03;;;-5.50;95.40;-6.40;100411.00;;;;4862458;28;88834;-52
2022/03/16 01:21:52;;;;;;;9.60;6.47;;;-5.50;95.40;-6.40;100412.00;;;;4878065;28;87598;-53
2022/03/16 01:24:24;;;;;;;11.55;6.97;;;-5.60;95.40;-6.50;100413.00;;;;4898622;28;87163;-62
2022/03/16 01:26:50;;;;;;;12.25;6.57;;;-5.60;95.40;-6.50;100413.00;;;;4893732;28;87370;-59
2022/03/16 01:29:16;;;;;;;11.05;6.70;;;-5.60;95.40;-6.50;100419.00;;;;4895951;28;87622;-60
2022/03/16 01:31:43;;;;;;;11.60;6.32;;;-5.60;95.50;-6.50;100409.00;;;;4897818;28;87400;-61
2022/03/16 01:34:09;;;;;;;12.73;6.85;;;-5.60;95.50;-6.50;100410.00;;;;4894327;28;87910;-60
2022/03/16 01:36:36;;;;;;;10.27;6.65;;;-5.60;95.50;-6.50;100415.00;;;;4878593;28;87276;-60
2022/03/16 01:39:03;;;;;;;11.25;7.13;;;-5.60;95.60;-6.50;100410.00;;;;4895197;28;88762;-61
2022/03/16 01:41:30;;;;;;;14.43;7.05;;;-5.60;95.60;-6.50;100416.00;;;;4890263;28;88425;-61
2022/03/16 01:43:57;;;;;;;11.15;6.43;;;-5.60;95.70;-6.50;100418.00;;;;4878144;28;87667;-60
2022/03/16 01:46:24;;;;;;;10.95;6.32;;;-5.60;95.70;-6.50;100424.00;;;;4877651;28;87452;-60
2022/03/16 01:48:53;;;;;;;12.63;5.68;;;-5.70;95.90;-6.60;100427.00;;;;4891558;28;88679;-59
2022/03/16 01:51:21;;;;;;;9.85;6.50;;;-5.70;95.90;-6.60;100419.00;;;;4896333;28;88256;-60
2022/03/16 01:53:49;;;;;;;10.68;6.53;;;-5.70;95.90;-6.60;100427.00;;;;4892821;28;86999;-60
2022/03/16 01:56:16;;;;;;;8.45;6.28;;;-5.70;96.00;-6.60;100427.00;;;;4892682;28;87591;-59
2022/03/16 01:58:43;;;;;;;10.48;6.55;;;-5.70;96.00;-6.50;100428.00;;;;4899490;28;88589;-60
2022/03/16 02:01:10;;;;;;;9.80;6.30;;;-5.70;95.90;-6.50;100433.00;;;;4898643;28;88465;-60
2022/03/16 02:03:36;;;;;;;12.57;6.97;;;-5.60;96.00;-6.50;100431.00;;;;4885784;28;87118;-59
2022/03/16 02:06:03;;;;;;;10.52;6.68;;;-5.60;96.00;-6.50;100425.00;;;;4891860;28;87946;-60
2022/03/16 02:08:31;;;;;;;13.88;6.80;;;-5.60;96.00;-6.50;100432.00;;;;4892588;28;88619;-59
2022/03/16 02:10:57;;;;;;;13.75;7.10;;;-5.60;96.30;-6.50;100435.00;;;;4876842;28;87026;-59
2022/03/16 02:13:24;;;;;;;10.57;7.25;;;-5.60;96.00;-6.50;100430.00;;;;4892724;28;86971;-60
2022/03/16 02:15:51;;;;;;;13.02;7.18;;;-5.60;96.00;-6.50;100426.00;;;;4895188;28;86512;-61
2022/03/16 02:18:17;;;;;;;12.10;7.20;;;-5.60;96.00;-6.50;100422.00;;;;4893168;28;88294;-60
2022/03/16 02:20:49;;;;;;;12.73;7.35;;;-5.60;96.10;-6.60;100426.00;;;;4892675;28;87893;-61
2022/03/16 02:23:15;;;;;;;12.05;7.78;;;-5.70;96.20;-6.60;100420.00;;;;4883548;28;87904;-60
2022/03/16 02:25:53;;;;;;;13.60;8.07;;;-5.70;96.40;-6.70;100423.00;;;;4892448;28;87084;-61
2022/03/16 02:28:22;;;;;;;12.65;8.10;;;-5.80;96.30;-6.70;100422.00;;;;4890667;28;87669;-60
2022/03/16 02:30:48;;;;;;;14.27;7.47;;;-5.80;96.50;-6.80;100415.00;;;;4890296;28;87375;-59
2022/03/16 02:33:15;;;;;;;13.75;7.85;;;-5.90;96.60;-6.80;100423.00;;;;4895908;28;87054;-59
2022/03/16 02:35:41;;;;;;;12.10;7.43;;;-5.90;96.80;-6.70;100424.00;;;;4892685;28;87043;-59
2022/03/16 02:38:08;;;;;;;14.23;7.75;;;-5.80;96.80;-6.70;100427.00;;;;4891538;28;87016;-59
2022/03/16 02:40:35;;;;;;;10.90;7.28;;;-5.80;96.70;-6.70;100428.00;;;;4895015;28;88545;-59
2022/03/16 02:43:02;;;;;;;11.18;7.47;;;-5.80;96.70;-6.70;100428.00;;;;4881451;28;87132;-59
2022/03/16 02:45:28;;;;;;;14.18;7.38;;;-5.80;96.70;-6.70;100416.00;;;;4891940;28;87285;-60
2022/03/16 02:47:55;;;;;;;14.00;8.10;;;-5.80;96.70;-6.70;100420.00;;;;4877111;28;89892;-59
2022/03/16 02:50:21;;;;;;;11.25;7.50;;;-5.80;96.70;-6.70;100425.00;;;;4894636;28;89340;-60
2022/03/16 02:52:48;;;;;;;12.27;7.65;;;-5.80;96.70;-6.70;100430.00;;;;4895384;28;88068;-60
2022/03/16 02:55:14;;;;;;;12.55;8.00;;;-5.80;96.70;-6.70;100428.00;;;;4893311;28;86893;-63
2022/03/16 02:57:42;;;;;;;11.68;7.97;;;-5.80;96.80;-6.70;100427.00;;;;4872417;28;88840;-60
2022/03/16 03:00:10;;;;;;;11.88;8.25;;;-5.80;96.80;-6.70;100421.00;;;;4890202;28;87415;-60
2022/03/16 03:02:37;;;;;;;12.65;8.30;;;-5.80;96.80;-6.70;100426.00;;;;4873927;28;87052;-61
2022/03/16 03:05:04;;;;;;;14.07;7.70;;;-5.80;96.90;-6.70;100424.00;;;;4894071;28;86319;-60
2022/03/16 03:07:30;;;;;;;13.20;8.50;;;-5.80;97.00;-6.80;100431.00;;;;4891998;28;87704;-60
2022/03/16 03:09:56;;;;;;;12.60;8.15;;;-5.80;97.00;-6.80;100445.00;;;;4893472;28;87488;-60
2022/03/16 03:12:23;;;;;;;11.93;8.75;;;-5.90;97.00;-6.90;100431.00;;;;4888736;28;88011;-60
2022/03/16 03:14:49;;;;;;;13.80;8.27;;;-6.00;96.90;-7.00;100434.00;;;;4888236;28;87579;-60
2022/03/16 03:17:15;;;;;;;13.07;8.38;;;-6.10;97.30;-7.00;100438.00;;;;4893161;28;88490;-60
2022/03/16 03:19:43;;;;;;;12.65;8.10;;;-6.10;97.50;-6.90;100437.00;;;;4890748;28;87291;-61
2022/03/16 03:22:10;;;;;;;12.43;8.18;;;-6.00;97.70;-7.00;100427.00;;;;4892695;28;86962;-61
2022/03/16 03:24:36;;;;;;;15.55;9.50;;;-6.10;97.70;-7.00;100450.00;;;;4894092;28;87616;-61
2022/03/16 03:27:02;;;;;;;11.77;8.73;;;-6.10;97.80;-6.90;100442.00;;;;4895397;28;87123;-60
2022/03/16 03:29:28;;;;;;;13.73;8.27;;;-6.10;97.70;-6.90;100449.00;;;;4895493;28;87359;-60
2022/03/16 03:31:54;;;;;;;13.07;9.70;;;-6.00;97.70;-6.90;100441.00;;;;4894890;28;87408;-60
2022/03/16 03:34:20;;;;;;;11.25;8.82;;;-6.00;97.60;-7.00;100445.00;;;;4896449;28;87122;-60
2022/03/16 03:36:47;;;;;;;13.20;9.60;;;-6.10;97.60;-7.10;100443.00;;;;4898978;28;88666;-60
2022/03/16 03:39:13;;;;;;;11.95;8.63;;;-6.10;97.60;-7.10;100456.00;;;;4884827;28;89573;-59
2022/03/16 03:41:39;;;;;;;15.02;9.27;;;-6.20;97.80;-7.10;100450.00;;;;4896094;28;87497;-60
2022/03/16 03:44:05;;;;;;;12.88;9.75;;;-6.20;98.00;-7.10;100454.00;;;;4904721;28;87096;-60
2022/03/16 03:46:32;;;;;;;14.45;9.57;;;-6.20;98.00;-7.10;100454.00;;;;4901452;28;88178;-60
2022/03/16 03:48:58;;;;;;;12.77;9.38;;;-6.10;98.00;-7.00;100461.00;;;;4894246;28;87309;-59
2022/03/16 03:51:24;;;;;;;12.63;9.35;;;-6.10;98.00;-6.90;100453.00;;;;4895757;28;87425;-60
2022/03/16 03:53:50;;;;;;;12.57;9.13;;;-6.00;98.00;-6.60;100461.00;;;;4886104;28;86561;-60
2022/03/16 03:56:17;;;;;;;15.73;8.45;;;-5.90;97.90;-6.30;100458.00;;;;4894055;28;88717;-60
2022/03/16 03:58:43;;;;;;;13.02;8.88;;;-5.80;97.80;-6.00;100454.00;;;;4893843;28;88480;-60
2022/03/16 04:01:09;;;;;;;10.85;7.72;;;-5.50;97.60;-5.70;100456.00;;;;4897524;28;88382;-60
2022/03/16 04:03:35;;;;;;;11.35;8.48;;;-5.30;97.30;-5.40;100453.00;;;;4894757;28;87242;-60
2022/03/16 04:06:02;;;;;;;10.85;8.30;;;-5.10;96.80;-5.10;100459.00;;;;4871818;28;87549;-61
2022/03/16 04:08:28;;;;;;;10.20;7.68;;;-4.90;96.30;-4.90;100466.00;;;;4892443;28;88661;-61
2022/03/16 04:10:54;;;;;;;14.43;8.07;;;-4.70;96.10;-4.60;100475.00;;;;4894359;28;87652;-60
2022/03/16 04:13:21;;;;;;;17.25;8.75;;;-4.60;95.70;-4.30;100469.00;;;;4897552;28;87138;-60
2022/03/16 04:15:47;;;;;;;11.40;7.60;;;-4.40;95.40;-4.10;100476.00;;;;4893731;28;88754;-60
2022/03/16 04:18:13;;;;;;;10.70;8.15;;;-4.20;94.90;-4.00;100468.00;;;;4894156;28;88490;-60
2022/03/16 04:20:39;;;;;;;13.55;8.27;;;-4.10;94.50;-3.90;100474.00;;;;4892278;28;87219;-60
2022/03/16 04:23:05;;;;;;;12.15;8.85;;;-4.00;94.30;-3.70;100474.00;;;;4888221;28;87120;-60
2022/03/16 04:25:31;;;;;;;12.30;8.95;;;-3.90;94.10;-3.50;100470.00;;;;4891913;28;88732;-61
2022/03/16 04:27:57;;;;;;;11.68;8.50;;;-3.80;94.20;-3.40;100481.00;;;;4893584;28;88345;-60
2022/03/16 04:30:23;;;;;;;13.35;8.38;;;-3.70;93.50;-3.40;100475.00;;;;4886565;28;87454;-61
2022/03/16 04:32:52;;;;;;;12.02;9.02;;;-3.70;93.40;-3.30;100486.00;;;;4894769;28;87260;-61
2022/03/16 04:35:20;;;;;;;11.05;8.57;;;-3.60;93.40;-3.10;100487.00;;;;4894310;28;88701;-61
2022/03/16 04:37:47;;;;;;;14.75;9.23;;;-3.50;93.20;-3.00;100477.00;;;;4896366;28;88004;-60
2022/03/16 04:40:14;;;;;;;13.85;9.52;;;-3.40;93.10;-2.70;100489.00;;;;4896035;28;87356;-60
2022/03/16 04:42:40;;;;;;;12.55;9.45;;;-3.30;92.80;-2.70;100486.00;;;;4889869;28;86687;-61
2022/03/16 04:45:07;;;;;;;15.18;9.20;;;-3.20;92.50;-2.50;100485.00;;;;4891041;28;87702;-60
2022/03/16 04:47:33;;;;;;;12.77;9.43;;;-3.10;92.50;-2.40;100485.00;;;;4896145;28;87233;-60
2022/03/16 04:50:00;;;;;;;13.77;9.10;;;-3.00;92.60;-2.30;100491.00;;;;4886590;28;88442;-60
2022/03/16 04:52:26;;;;;;;14.70;9.40;;;-3.00;92.40;-2.20;100497.00;;;;4893928;28;87120;-60
2022/03/16 04:54:52;;;;;;;15.77;9.93;;;-2.90;92.40;-2.10;100496.00;;;;4885708;28;87571;-59
2022/03/16 04:57:18;;;;;;;12.77;9.93;;;-2.80;92.20;-1.90;100509.00;;;;4896818;28;87323;-60
2022/03/16 04:59:44;;;;;;;14.13;10.40;;;-2.70;92.20;-2.00;100500.00;;;;4902157;28;87166;-60
2022/03/16 05:02:10;;;;;;;13.98;9.90;;;-2.80;92.10;-2.20;100495.00;;;;4893392;28;87151;-60
2022/03/16 05:04:36;;;;;;;15.15;11.15;;;-3.00;92.50;-2.40;100493.00;;;;4895057;28;88658;-61
2022/03/16 05:07:03;;;;;;;15.77;11.30;;;-3.10;92.50;-2.60;100507.00;;;;4891751;28;88824;-61
2022/03/16 05:09:29;;;;;;;15.23;11.90;;;-3.20;93.00;-2.60;100506.00;;;;4892676;28;87316;-61
2022/03/16 05:11:55;;;;;;;18.38;11.63;;;-3.20;93.20;-2.70;100506.00;;;;4882288;28;87074;-61
2022/03/16 05:14:21;;;;;;;19.48;11.30;;;-3.20;93.30;-3.30;100514.00;;;;4894472;28;88475;-62
2022/03/16 05:16:47;;;;;;;17.58;11.50;;;-3.30;93.30;-3.80;100507.00;;;;4895158;28;89098;-61
2022/03/16 05:19:13;;;;;;;14.15;12.57;;;-3.50;93.50;-4.10;100506.00;;;;4896333;28;87909;-64
2022/03/16 05:21:40;;;;;;;17.17;12.10;;;-3.70;94.00;-4.40;100506.00;;;;4891726;28;87434;-61
2022/03/16 05:24:06;;;;;;;15.23;12.07;;;-3.80;94.20;-4.50;100527.00;;;;4892034;28;87373;-61
2022/03/16 05:26:33;;;;;;;15.52;12.27;;;-3.90;94.40;-4.60;100515.00;;;;4896332;28;87498;-62
2022/03/16 05:28:59;;;;;;;15.20;12.05;;;-4.00;94.40;-4.70;100512.00;;;;4883193;28;87317;-63
2022/03/16 05:31:25;;;;;;;17.33;12.02;;;-4.00;94.70;-4.80;100523.00;;;;4892261;28;86285;-60
2022/03/16 05:33:51;;;;;;;17.92;12.43;;;-4.10;94.70;-4.80;100523.00;;;;4882447;28;89955;-60
2022/03/16 05:36:17;;;;;;;14.38;11.88;;;-4.00;94.80;-4.70;100506.00;;;;4884311;28;87390;-61
2022/03/16 05:38:44;;;;;;;15.60;12.32;;;-4.00;94.90;-4.60;100508.00;;;;4894665;28;88170;-61
2022/03/16 05:41:11;;;;;;;17.38;12.77;;;-3.90;94.70;-4.60;100509.00;;;;4893516;28;87524;-61
2022/03/16 05:43:38;;;;;;;16.55;11.93;;;-3.90;94.50;-4.50;100508.00;;;;4893415;28;87455;-60
2022/03/16 05:46:04;;;;;;;19.27;12.57;;;-3.80;94.50;-4.50;100518.00;;;;4892835;28;88505;-61
2022/03/16 05:48:30;;;;;;;15.98;12.07;;;-3.70;94.50;-4.40;100518.00;;;;4895193;28;87288;-61
2022/03/16 05:50:56;;;;;;;15.93;12.70;;;-3.70;94.10;-4.50;100526.00;;;;4893177;28;86900;-60
2022/03/16 05:53:22;;;;;;;17.83;12.07;;;-3.70;94.10;-4.40;100527.00;;;;4892802;28;87554;-61
2022/03/16 05:55:49;;;;;;;14.25;11.35;;;-3.60;94.10;-4.30;100526.00;;;;4893797;28;87935;-60
2022/03/16 05:58:15;;;;;;;17.35;11.57;;;-3.60;94.00;-4.30;100539.00;;;;4895718;28;87043;-61
2022/03/16 06:00:42;;;;;;;14.40;11.52;;;-3.50;93.90;-4.20;100530.00;;;;4892542;28;87149;-61
2022/03/16 06:03:08;;;;;;;15.63;12.05;;;-3.50;93.80;-4.10;100527.00;;;;4891724;28;88415;-61
2022/03/16 06:05:35;;;;;;;13.88;11.63;;;-3.30;93.60;-4.00;100525.00;;;;4895334;28;88217;-62
2022/03/16 06:08:01;;;;;;;14.70;10.68;;;-3.20;93.30;-3.90;100523.00;;;;4887379;28;87814;-60
2022/03/16 06:10:27;;;;;;;13.88;10.77;;;-3.20;93.00;-3.90;100518.00;;;;4892126;28;87313;-60
2022/03/16 06:13:00;;;;;;;10.77;9.00;;;-3.20;92.50;-3.90;100528.00;;;;4892574;28;87862;-60
2022/03/16 06:15:30;;;;;;;12.65;9.43;;;-3.20;92.50;-3.80;100528.00;;;;4882750;28;88061;-59
2022/03/16 06:17:59;;;;;;;12.05;9.10;;;-3.20;92.30;-3.80;100539.00;;;;4896282;28;87710;-60
2022/03/16 06:20:28;;;;;;;13.18;9.45;;;-3.10;91.90;-3.80;100537.00;;;;4893574;28;86570;-61
2022/03/16 06:22:54;;;;;;;15.20;9.90;;;-3.10;91.70;-3.80;100553.00;;;;4893514;28;88211;-60
2022/03/16 06:25:24;;;;;;;14.93;10.70;;;-3.10;92.20;-3.80;100540.00;;;;4894421;28;87495;-60
2022/03/16 06:27:51;;;;;;;15.20;10.73;;;-3.20;92.20;-3.70;100546.00;;;;4891810;28;88451;-60
2022/03/16 06:30:18;;;;;;;13.20;10.32;;;-3.10;92.10;-3.60;100546.00;;;;4893504;28;87049;-61
2022/03/16 06:32:45;;;;;;;16.80;10.77;;;-2.90;92.00;-3.60;100551.00;;;;4891084;28;87588;-60
2022/03/16 06:35:12;;;;;;;12.55;9.30;;;-3.00;91.60;-3.60;100542.00;;;;4892287;28;87382;-60
2022/03/16 06:37:38;;;;;;;16.65;10.60;;;-3.00;91.30;-3.60;100545.00;;;;4893883;28;87375;-60
2022/03/16 06:40:06;;;;;;;15.02;9.88;;;-3.00;91.30;-3.50;100532.00;;;;4881377;28;87087;-60
2022/03/16 06:42:32;;;;;;;14.82;10.52;;;-2.90;91.20;-3.50;100544.00;;;;4893323;28;87682;-61
2022/03/16 06:44:58;;;;;;;20.08;9.95;;;-2.90;91.40;-3.50;100543.00;;;;4892250;28;87352;-61
2022/03/16 06:47:25;;;;;;;16.85;10.05;;;-2.80;91.30;-3.30;100546.00;;;;4889428;28;87459;-61
2022/03/16 06:49:51;;;;;;;14.20;9.80;;;-2.70;91.20;-3.20;100550.00;;;;4889545;28;87109;-61
2022/03/16 06:52:17;;;;;;;12.50;9.65;;;-2.60;90.70;-3.20;100560.00;;;;4893087;28;89709;-60
2022/03/16 06:54:43;;;;;;;14.88;10.07;;;-2.60;90.30;-3.20;100558.00;;;;4893239;28;90099;-60
2022/03/16 06:57:09;;;;;;;15.43;9.20;;;-2.60;90.30;-3.30;100554.00;;;;4882577;28;87316;-61
2022/03/16 06:59:36;;;;;;;17.35;10.23;;;-2.70;90.20;-3.40;100572.00;;;;4879352;28;87214;-60
2022/03/16 07:02:02;;;;;;;15.75;10.20;;;-2.80;90.50;-3.30;100561.00;;;;4891708;28;88855;-61
2022/03/16 07:04:28;;;;;;;14.55;10.32;;;-2.70;90.70;-3.30;100560.00;;;;4892733;28;87319;-61
2022/03/16 07:06:54;;;;;;;15.10;10.00;;;-2.80;90.40;-3.30;100566.00;;;;4891031;28;87184;-61
2022/03/16 07:09:20;;;;;;;13.98;9.80;;;-2.70;90.50;-3.20;100561.00;;;;4892767;28;86500;-61
2022/03/16 07:11:46;;;;;;;13.07;9.95;;;-2.60;89.90;-3.00;100562.00;;;;4897454;28;88679;-61
2022/03/16 07:14:31;;;;;;;15.02;10.20;;;-2.50;90.00;-2.90;100577.00;;;;4891294;28;88485;-60
2022/03/16 07:17:02;;;;;;;13.55;10.18;;;-2.30;89.00;-3.00;100572.00;;;;4892109;28;87915;-60
2022/03/16 07:19:29;;;;;;;14.88;11.13;;;-2.30;88.90;-3.00;100572.00;;;;4894539;28;87414;-61
2022/03/16 07:21:58;;;;;;;11.48;8.63;;;-2.40;89.40;-3.00;100592.00;;;;4892418;28;87535;-61
2022/03/16 07:24:25;;;;;;;10.68;8.98;;;-2.40;87.80;-3.10;100598.00;;;;4886086;28;88383;-60
2022/03/16 07:26:56;;;;;;;12.38;8.88;;;-2.50;88.20;-3.10;100583.00;;;;4892027;28;87005;-61
2022/03/16 07:29:23;;;;;;;10.80;9.32;;;-2.50;88.90;-3.00;100579.00;;;;4893894;28;87503;-60
2022/03/16 07:31:49;;;;;;;13.75;9.40;;;-2.50;88.80;-3.00;100571.00;;;;4891948;28;87524;-60
2022/03/16 07:34:16;;;;;;;14.68;8.63;;;-2.50;89.20;-2.90;100578.00;;;;4893357;28;87426;-61
2022/03/16 07:36:42;;;;;;;10.95;8.95;;;-2.30;89.00;-2.70;100567.00;;;;4892423;28;86963;-60
2022/03/16 07:39:11;;;;;;;11.52;9.30;;;-2.20;88.10;-2.60;100565.00;;;;4882249;28;87624;-60
2022/03/16 07:41:38;;;;;;;13.25;8.55;;;-2.00;87.80;-2.50;100568.00;;;;4882197;28;88711;-61
2022/03/16 07:44:05;;;;;;;10.65;7.60;;;-2.00;86.30;-2.60;100570.00;;;;4889689;28;89410;-62
2022/03/16 07:46:31;;;;;;;10.13;7.65;;;-2.10;86.20;-2.60;100555.00;;;;4892099;28;87057;-60
2022/03/16 07:48:58;;;;;;;10.23;7.43;;;-2.10;85.70;-2.70;100566.00;;;;4893479;28;87426;-60
2022/03/16 07:51:24;;;;;;;10.50;7.70;;;-2.10;85.30;-2.60;100563.00;;;;4896699;28;87543;-61
2022/03/16 07:53:50;;;;;;;11.63;7.32;;;-2.00;85.90;-2.60;100579.00;;;;4873940;28;87272;-60
2022/03/16 07:56:16;;;;;;;10.43;7.15;;;-2.00;85.40;-2.70;100570.00;;;;4900363;28;87633;-60
2022/03/16 07:58:43;;;;;;;9.50;7.90;;;-2.20;86.00;-2.70;100574.00;;;;4894188;28;86760;-60
2022/03/16 08:01:09;;;;;;;14.05;8.68;;;-2.20;86.10;-2.70;100568.00;;;;4892422;28;87967;-61
2022/03/16 08:03:36;;;;;;;11.57;7.78;;;-2.10;86.90;-2.60;100557.00;;;;4892833;28;87202;-61
2022/03/16 08:06:03;;;;;;;13.15;8.15;;;-2.10;86.30;-2.50;100563.00;;;;4891967;28;87920;-61
2022/03/16 08:08:30;;;;;;;11.48;8.18;;;-2.00;85.70;-2.50;100557.00;;;;4893510;28;87643;-60
2022/03/16 08:10:56;;;;;;;14.90;8.60;;;-2.00;85.50;-2.60;100550.00;;;;4893207;28;87944;-59
2022/03/16 08:13:22;;;;;;;15.13;8.88;;;-2.00;85.60;-2.50;100555.00;;;;4888431;28;87320;-59
2022/03/16 08:15:49;;;;;;;13.57;8.15;;;-1.90;85.60;-2.40;100567.00;;;;4890124;28;87056;-61
2022/03/16 08:18:15;;;;;;;9.75;7.32;;;-1.90;84.90;-2.40;100547.00;;;;4893839;28;87358;-59
2022/03/16 08:20:41;;;;;;;12.70;8.20;;;-1.80;84.40;-2.30;100579.00;;;;4857912;28;88450;-59
2022/03/16 08:23:07;;;;;;;10.60;7.18;;;-1.80;84.70;-2.40;100563.00;;;;4894959;28;88323;-60
2022/03/16 08:25:33;;;;;;;11.27;7.78;;;-1.90;82.60;-2.60;100561.00;;;;4897683;28;87963;-61
2022/03/16 08:28:01;;;;;;;10.48;6.88;;;-2.10;84.40;-2.60;100551.00;;;;4890726;28;87051;-61
2022/03/16 08:30:27;;;;;;;12.55;7.57;;;-2.00;83.60;-2.50;100557.00;;;;4882320;28;89158;-60
2022/03/16 08:32:53;;;;;;;12.40;7.40;;;-2.00;83.80;-2.60;100555.00;;;;4891491;28;89449;-60
2022/03/16 08:35:20;;;;;;;11.95;7.88;;;-2.10;83.90;-2.60;100558.00;;;;4892631;28;86982;-59
2022/03/16 08:37:46;;;;;;;11.60;8.38;;;-2.10;84.70;-2.40;100556.00;;;;4886261;28;87098;-60
2022/03/16 08:40:15;;;;;;;13.43;8.70;;;-1.80;85.00;-2.20;100564.00;;;;4894511;28;87532;-61
2022/03/16 08:42:41;;;;;;;9.57;7.28;;;-1.70;83.40;-2.20;100565.00;;;;4893520;28;88435;-59
2022/03/16 08:45:08;;;;;;;13.40;7.53;;;-1.70;83.20;-2.20;100580.00;;;;4895637;28;87073;-60
2022/03/16 08:47:34;;;;;;;13.10;8.73;;;-1.70;84.20;-2.20;100555.00;;;;4896499;28;86351;-60
2022/03/16 08:50:01;;;;;;;12.48;8.30;;;-1.60;83.40;-2.20;100568.00;;;;4893137;28;87788;-61
2022/03/16 08:52:27;;;;;;;13.25;9.05;;;-1.70;83.50;-2.10;100558.00;;;;4892968;28;88403;-61
2022/03/16 08:54:53;;;;;;;12.63;8.93;;;-1.60;83.50;-2.10;100553.00;;;;4895921;28;88033;-60
2022/03/16 08:57:22;;;;;;;14.35;8.18;;;-1.60;83.90;-2.00;100558.00;;;;4893144;28;87051;-62
2022/03/16 08:59:49;;;;;;;11.55;7.53;;;-1.50;83.20;-1.90;100555.00;;;;4894097;28;87652;-61
2022/03/16 09:02:15;;;;;;;15.45;8.13;;;-1.40;81.80;-2.10;100563.00;;;;4894727;28;87588;-60
2022/03/16 09:04:41;;;;;;;13.15;8.00;;;-1.60;82.10;-2.10;100567.00;;;;4891323;28;86916;-60
2022/03/16 09:07:08;;;;;;;14.02;8.10;;;-1.60;83.20;-2.20;100600.00;;;;4894841;28;87781;-60
2022/03/16 09:09:34;;;;;;;12.52;8.30;;;-1.80;82.90;-2.20;100580.00;;;;4894753;28;87566;-60
2022/03/16 09:12:01;;;;;;;12.30;9.00;;;-1.80;83.20;-2.10;100567.00;;;;4893368;28;87090;-60
2022/03/16 09:14:27;;;;;;;13.60;8.38;;;-1.60;83.70;-2.00;100561.00;;;;4879853;28;86997;-60
2022/03/16 09:16:53;;;;;;;15.65;8.00;;;-1.50;82.70;-1.90;100551.00;;;;4894179;28;87093;-60
2022/03/16 09:19:22;;;;;;;13.55;8.23;;;-1.40;82.20;-1.90;100559.00;;;;4891593;28;88475;-60
2022/03/16 09:21:51;;;;;;;12.52;7.85;;;-1.40;82.60;-1.90;100579.00;;;;4892662;28;88407;-61
2022/03/16 09:24:18;;;;;;;11.25;7.72;;;-1.50;81.30;-1.90;100567.00;;;;4892683;28;87080;-60
2022/03/16 09:26:45;;;;;;;10.70;7.75;;;-1.40;81.50;-1.90;100561.00;;;;4894146;28;87794;-61
2022/03/16 09:29:12;;;;;;;14.00;7.72;;;-1.40;80.50;-1.90;100575.00;;;;4894784;28;87411;-61
2022/03/16 09:31:39;;;;;;;13.05;7.95;;;-1.40;80.30;-1.70;100570.00;;;;4892654;28;87507;-61
2022/03/16 09:34:07;;;;;;;14.13;8.10;;;-1.30;79.90;-1.70;100580.00;;;;4895218;28;87343;-60
2022/03/16 09:36:36;;;;;;;12.70;8.20;;;-1.30;80.10;-2.00;100560.00;;;;4891527;28;86263;-60
2022/03/16 09:39:02;;;;;;;10.88;8.02;;;-1.50;80.70;-1.90;100561.00;;;;4890410;28;87514;-60
2022/03/16 09:41:28;;;;;;;12.52;7.78;;;-1.50;81.40;-1.70;100566.00;;;;4893181;28;88765;-60
2022/03/16 09:43:55;;;;;;;12.35;7.93;;;-1.30;80.70;-1.60;100550.00;;;;4893977;28;88014;-60
2022/03/16 09:46:36;;;;;;;12.77;8.20;;;-1.10;80.70;-1.40;100560.00;;;;4889604;28;87448;-61
2022/03/16 09:49:09;;;;;;;13.68;8.13;;;-0.90;80.00;-1.30;100547.00;;;;4877205;28;87944;-57
2022/03/16 09:51:38;;;;;;;13.77;8.43;;;-0.90;79.70;-1.30;100570.00;;;;4892624;28;87559;-61
2022/03/16 09:54:08;;;;;;;11.43;7.15;;;-0.90;79.70;-1.40;100563.00;;;;4894924;28;86906;-59
2022/03/16 09:56:34;;;;;;;10.38;7.03;;;-1.00;78.70;-1.40;100557.00;;;;4882326;28;87149;-61
2022/03/16 09:59:01;;;;;;;11.45;7.65;;;-1.00;76.50;-1.60;100565.00;;;;4895078;28;87757;-61
2022/03/16 10:01:28;;;;;;;10.23;6.72;;;-1.10;78.30;-1.50;100558.00;;;;4897654;28;87082;-61
2022/03/16 10:04:06;;;;;;;10.75;7.40;;;-1.10;77.60;-1.50;100555.00;;;;4890586;28;87793;-61
2022/03/16 10:06:39;;;;;;;9.52;7.13;;;-1.00;78.40;-1.30;100552.00;;;;4893856;28;87443;-60
2022/03/16 10:15:10;;;;;;;9.90;7.32;;;-0.90;77.90;-1.50;100586.00;;;;4893336;28;87378;-60
2022/03/16 10:17:44;;;;;;;13.35;7.80;;;-1.00;78.80;-1.50;100581.00;;;;4892341;28;87001;-62
2022/03/16 10:20:27;;;;;;;11.00;8.13;;;-1.10;78.80;-1.70;100563.00;;;;4893608;28;87406;-58
2022/03/16 10:22:57;;;;;;;13.15;8.45;;;-1.20;79.80;-1.60;100545.00;;;;4889097;28;87854;-60
2022/03/16 10:25:26;;;;;;;10.02;7.28;;;-1.10;79.90;-1.60;100556.00;;;;4883529;28;86921;-60
2022/03/16 10:27:53;;;;;;;9.45;7.70;;;-1.10;79.50;-1.50;100564.00;;;;4893510;28;87043;-62
2022/03/16 10:30:20;;;;;;;9.68;7.25;;;-1.10;79.20;-1.40;100559.00;;;;4881777;28;87798;-62
2022/03/16 10:32:53;;;;;;;12.07;7.18;;;-0.90;78.90;-1.30;100560.00;;;;4890616;28;88661;-62
2022/03/16 10:35:20;;;;;;;12.23;7.00;;;-0.80;78.60;-1.10;100546.00;;;;4892796;28;88237;-61
2022/03/16 10:37:49;;;;;;;11.63;7.43;;;-0.70;77.10;-1.10;100558.00;;;;4892427;28;87339;-62
2022/03/16 10:40:23;;;;;;;9.45;6.88;;;-0.70;76.90;-0.90;100553.00;;;;4880942;28;87670;-64
2022/03/16 10:48:23;;;;;;;11.05;7.15;;;-0.70;76.90;-1.10;100570.00;;;;4893306;28;86948;-62
2022/03/16 10:51:02;;;;;;;9.75;6.97;;;-0.70;77.00;-1.10;100572.00;;;;4893088;28;87760;-62